sensor_id;sensor_type;location;lat;lon;timestamp;P1;durP1;ratioP1;P2;durP2;ratioP2
62289;SDS011;48284;46.828;29.480;2022-09-28T00:01:22;8.52;;;6.30;;
62289;SDS011;48284;46.828;29.480;2022-09-28T00:03:52;7.03;;;5.70;;
62289;SDS011;48284;46.828;29.480;2022-09-28T00:06:27;7.20;;;5.25;;
62289;SDS011;48284;46.828;29.480;2022-09-28T00:08:57;8.00;;;5.55;;
62289;SDS011;48284;46.828;29.480;2022-09-28T00:11:27;9.57;;;5.63;;
62289;SDS011;48284;46.828;29.480;2022-09-28T00:13:56;6.97;;;5.82;;
62289;SDS011;48284;46.828;29.480;2022-09-28T00:16:28;8.02;;;5.97;;
62289;SDS011;48284;46.828;29.480;2022-09-28T00:18:58;7.40;;;5.63;;
62289;SDS011;48284;46.828;29.480;2022-09-28T00:21:30;7.18;;;5.47;;
62289;SDS011;48284;46.828;29.480;2022-09-28T00:24:00;6.82;;;5.88;;
62289;SDS011;48284;46.828;29.480;2022-09-28T00:26:42;8.23;;;5.70;;
62289;SDS011;48284;46.828;29.480;2022-09-28T00:29:17;7.30;;;5.32;;
62289;SDS011;48284;46.828;29.480;2022-09-28T00:31:48;5.78;;;5.18;;
62289;SDS011;48284;46.828;29.480;2022-09-28T00:34:19;7.15;;;5.70;;
62289;SDS011;48284;46.828;29.480;2022-09-28T00:36:49;6.33;;;5.23;;
62289;SDS011;48284;46.828;29.480;2022-09-28T00:39:17;9.20;;;5.40;;
62289;SDS011;48284;46.828;29.480;2022-09-28T00:41:47;8.68;;;5.25;;
62289;SDS011;48284;46.828;29.480;2022-09-28T00:44:39;6.75;;;5.35;;
62289;SDS011;48284;46.828;29.480;2022-09-28T00:50:17;5.30;;;4.80;;
62289;SDS011;48284;46.828;29.480;2022-09-28T00:52:52;6.38;;;5.28;;
62289;SDS011;48284;46.828;29.480;2022-09-28T00:55:24;9.20;;;5.57;;
62289;SDS011;48284;46.828;29.480;2022-09-28T00:57:58;7.47;;;5.78;;
62289;SDS011;48284;46.828;29.480;2022-09-28T01:00:29;7.18;;;5.90;;
62289;SDS011;48284;46.828;29.480;2022-09-28T01:02:58;6.65;;;5.57;;
62289;SDS011;48284;46.828;29.480;2022-09-28T01:05:27;7.85;;;5.20;;
62289;SDS011;48284;46.828;29.480;2022-09-28T01:07:57;5.72;;;5.07;;
62289;SDS011;48284;46.828;29.480;2022-09-28T01:10:26;6.35;;;5.20;;
62289;SDS011;48284;46.828;29.480;2022-09-28T01:12:54;6.38;;;5.35;;
62289;SDS011;48284;46.828;29.480;2022-09-28T01:15:26;10.05;;;5.70;;
62289;SDS011;48284;46.828;29.480;2022-09-28T01:17:59;6.07;;;5.32;;
62289;SDS011;48284;46.828;29.480;2022-09-28T01:23:46;6.97;;;5.70;;
62289;SDS011;48284;46.828;29.480;2022-09-28T01:29:21;5.55;;;4.95;;
62289;SDS011;48284;46.828;29.480;2022-09-28T01:32:00;5.60;;;5.07;;
62289;SDS011;48284;46.828;29.480;2022-09-28T01:34:36;10.60;;;5.47;;
62289;SDS011;48284;46.828;29.480;2022-09-28T01:37:10;6.63;;;4.90;;
62289;SDS011;48284;46.828;29.480;2022-09-28T01:39:44;5.65;;;5.13;;
62289;SDS011;48284;46.828;29.480;2022-09-28T01:42:18;8.73;;;5.30;;
62289;SDS011;48284;46.828;29.480;2022-09-28T01:44:51;6.80;;;5.53;;
62289;SDS011;48284;46.828;29.480;2022-09-28T01:47:24;6.95;;;5.32;;
62289;SDS011;48284;46.828;29.480;2022-09-28T01:49:59;6.75;;;5.20;;
62289;SDS011;48284;46.828;29.480;2022-09-28T01:52:33;6.82;;;5.20;;
62289;SDS011;48284;46.828;29.480;2022-09-28T01:55:08;6.40;;;4.80;;
62289;SDS011;48284;46.828;29.480;2022-09-28T01:57:43;5.55;;;4.85;;
62289;SDS011;48284;46.828;29.480;2022-09-28T02:00:17;5.82;;;4.85;;
62289;SDS011;48284;46.828;29.480;2022-09-28T02:02:50;6.50;;;5.45;;
62289;SDS011;48284;46.828;29.480;2022-09-28T02:05:45;6.63;;;5.10;;
62289;SDS011;48284;46.828;29.480;2022-09-28T02:08:19;5.70;;;5.10;;
62289;SDS011;48284;46.828;29.480;2022-09-28T02:10:54;5.93;;;4.82;;
62289;SDS011;48284;46.828;29.480;2022-09-28T02:13:29;5.43;;;4.82;;
62289;SDS011;48284;46.828;29.480;2022-09-28T02:16:01;6.55;;;4.72;;
62289;SDS011;48284;46.828;29.480;2022-09-28T02:18:34;6.63;;;5.35;;
62289;SDS011;48284;46.828;29.480;2022-09-28T02:21:05;5.95;;;5.45;;
62289;SDS011;48284;46.828;29.480;2022-09-28T02:23:40;5.75;;;5.15;;
62289;SDS011;48284;46.828;29.480;2022-09-28T02:26:15;6.35;;;5.20;;
62289;SDS011;48284;46.828;29.480;2022-09-28T02:28:51;6.15;;;5.32;;
62289;SDS011;48284;46.828;29.480;2022-09-28T02:31:20;6.07;;;5.47;;
62289;SDS011;48284;46.828;29.480;2022-09-28T02:33:48;5.32;;;4.82;;
62289;SDS011;48284;46.828;29.480;2022-09-28T02:36:18;7.93;;;5.50;;
62289;SDS011;48284;46.828;29.480;2022-09-28T02:38:47;8.98;;;4.85;;
62289;SDS011;48284;46.828;29.480;2022-09-28T02:41:19;5.65;;;4.93;;
62289;SDS011;48284;46.828;29.480;2022-09-28T02:43:59;6.05;;;5.13;;
62289;SDS011;48284;46.828;29.480;2022-09-28T02:46:40;7.43;;;5.43;;
62289;SDS011;48284;46.828;29.480;2022-09-28T02:49:26;7.85;;;5.28;;
62289;SDS011;48284;46.828;29.480;2022-09-28T02:52:07;5.90;;;4.85;;
62289;SDS011;48284;46.828;29.480;2022-09-28T02:54:55;5.97;;;4.97;;
62289;SDS011;48284;46.828;29.480;2022-09-28T03:00:18;6.68;;;5.22;;
62289;SDS011;48284;46.828;29.480;2022-09-28T03:02:50;6.35;;;5.10;;
62289;SDS011;48284;46.828;29.480;2022-09-28T03:05:32;5.45;;;4.93;;
62289;SDS011;48284;46.828;29.480;2022-09-28T03:08:14;6.20;;;5.05;;
62289;SDS011;48284;46.828;29.480;2022-09-28T03:10:49;6.22;;;5.10;;
62289;SDS011;48284;46.828;29.480;2022-09-28T03:13:23;7.57;;;4.80;;
62289;SDS011;48284;46.828;29.480;2022-09-28T03:16:05;5.72;;;4.90;;
62289;SDS011;48284;46.828;29.480;2022-09-28T03:18:39;5.93;;;5.03;;
62289;SDS011;48284;46.828;29.480;2022-09-28T03:23:37;5.93;;;4.82;;
62289;SDS011;48284;46.828;29.480;2022-09-28T03:26:06;5.30;;;4.55;;
62289;SDS011;48284;46.828;29.480;2022-09-28T03:28:35;5.38;;;4.50;;
62289;SDS011;48284;46.828;29.480;2022-09-28T03:31:06;5.55;;;4.95;;
62289;SDS011;48284;46.828;29.480;2022-09-28T03:33:35;5.72;;;4.97;;
62289;SDS011;48284;46.828;29.480;2022-09-28T03:36:04;5.60;;;4.60;;
62289;SDS011;48284;46.828;29.480;2022-09-28T03:38:35;5.90;;;4.97;;
62289;SDS011;48284;46.828;29.480;2022-09-28T03:41:05;6.53;;;5.07;;
62289;SDS011;48284;46.828;29.480;2022-09-28T03:43:38;5.68;;;5.00;;
62289;SDS011;48284;46.828;29.480;2022-09-28T03:46:08;8.02;;;5.13;;
62289;SDS011;48284;46.828;29.480;2022-09-28T03:48:42;6.88;;;5.20;;
62289;SDS011;48284;46.828;29.480;2022-09-28T03:51:11;5.50;;;4.93;;
62289;SDS011;48284;46.828;29.480;2022-09-28T03:53:40;8.27;;;4.47;;
62289;SDS011;48284;46.828;29.480;2022-09-28T03:56:11;6.53;;;5.05;;
62289;SDS011;48284;46.828;29.480;2022-09-28T03:58:40;6.15;;;4.95;;
62289;SDS011;48284;46.828;29.480;2022-09-28T04:01:12;7.47;;;4.55;;
62289;SDS011;48284;46.828;29.480;2022-09-28T04:03:45;7.65;;;4.93;;
62289;SDS011;48284;46.828;29.480;2022-09-28T04:06:15;7.93;;;5.25;;
62289;SDS011;48284;46.828;29.480;2022-09-28T04:08:43;5.70;;;4.78;;
62289;SDS011;48284;46.828;29.480;2022-09-28T04:11:12;5.18;;;4.53;;
62289;SDS011;48284;46.828;29.480;2022-09-28T04:13:40;5.47;;;4.97;;
62289;SDS011;48284;46.828;29.480;2022-09-28T04:16:14;6.45;;;4.72;;
62289;SDS011;48284;46.828;29.480;2022-09-28T04:18:52;5.18;;;4.63;;
62289;SDS011;48284;46.828;29.480;2022-09-28T04:21:39;6.90;;;4.68;;
62289;SDS011;48284;46.828;29.480;2022-09-28T04:24:11;5.80;;;4.80;;
62289;SDS011;48284;46.828;29.480;2022-09-28T04:26:40;6.03;;;4.82;;
62289;SDS011;48284;46.828;29.480;2022-09-28T04:29:10;5.53;;;4.50;;
62289;SDS011;48284;46.828;29.480;2022-09-28T04:31:54;6.68;;;5.03;;
62289;SDS011;48284;46.828;29.480;2022-09-28T04:34:31;6.63;;;4.35;;
62289;SDS011;48284;46.828;29.480;2022-09-28T04:37:05;5.07;;;4.57;;
62289;SDS011;48284;46.828;29.480;2022-09-28T04:39:34;6.40;;;5.00;;
62289;SDS011;48284;46.828;29.480;2022-09-28T04:42:03;7.57;;;5.03;;
62289;SDS011;48284;46.828;29.480;2022-09-28T04:44:31;7.15;;;6.05;;
62289;SDS011;48284;46.828;29.480;2022-09-28T04:47:08;13.55;;;8.55;;
62289;SDS011;48284;46.828;29.480;2022-09-28T04:49:55;11.30;;;8.52;;
62289;SDS011;48284;46.828;29.480;2022-09-28T04:52:29;14.18;;;9.85;;
62289;SDS011;48284;46.828;29.480;2022-09-28T04:54:57;10.90;;;9.52;;
62289;SDS011;48284;46.828;29.480;2022-09-28T04:57:26;13.75;;;10.68;;
62289;SDS011;48284;46.828;29.480;2022-09-28T04:59:55;12.85;;;11.52;;
62289;SDS011;48284;46.828;29.480;2022-09-28T05:02:24;13.35;;;11.93;;
62289;SDS011;48284;46.828;29.480;2022-09-28T05:05:19;15.48;;;13.20;;
62289;SDS011;48284;46.828;29.480;2022-09-28T05:08:05;15.38;;;12.73;;
62289;SDS011;48284;46.828;29.480;2022-09-28T05:10:34;17.63;;;13.43;;
62289;SDS011;48284;46.828;29.480;2022-09-28T05:13:03;16.85;;;13.32;;
62289;SDS011;48284;46.828;29.480;2022-09-28T05:15:32;19.02;;;14.75;;
62289;SDS011;48284;46.828;29.480;2022-09-28T05:18:03;17.67;;;13.77;;
62289;SDS011;48284;46.828;29.480;2022-09-28T05:20:43;17.45;;;14.43;;
62289;SDS011;48284;46.828;29.480;2022-09-28T05:23:12;26.23;;;15.07;;
62289;SDS011;48284;46.828;29.480;2022-09-28T05:25:42;20.83;;;15.27;;
62289;SDS011;48284;46.828;29.480;2022-09-28T05:28:23;16.20;;;14.60;;
62289;SDS011;48284;46.828;29.480;2022-09-28T05:31:12;18.83;;;15.90;;
62289;SDS011;48284;46.828;29.480;2022-09-28T05:34:01;16.38;;;14.38;;
62289;SDS011;48284;46.828;29.480;2022-09-28T05:36:30;16.50;;;14.77;;
62289;SDS011;48284;46.828;29.480;2022-09-28T05:38:59;21.55;;;16.02;;
62289;SDS011;48284;46.828;29.480;2022-09-28T05:41:30;18.00;;;16.08;;
62289;SDS011;48284;46.828;29.480;2022-09-28T05:43:59;18.25;;;15.80;;
62289;SDS011;48284;46.828;29.480;2022-09-28T05:46:29;19.85;;;16.98;;
62289;SDS011;48284;46.828;29.480;2022-09-28T05:48:59;22.25;;;16.73;;
62289;SDS011;48284;46.828;29.480;2022-09-28T05:51:29;27.23;;;16.00;;
62289;SDS011;48284;46.828;29.480;2022-09-28T05:53:58;23.55;;;17.58;;
62289;SDS011;48284;46.828;29.480;2022-09-28T05:56:44;20.10;;;16.85;;
62289;SDS011;48284;46.828;29.480;2022-09-28T05:59:13;18.88;;;16.63;;
62289;SDS011;48284;46.828;29.480;2022-09-28T06:01:42;24.70;;;16.83;;
62289;SDS011;48284;46.828;29.480;2022-09-28T06:04:11;23.38;;;15.90;;
62289;SDS011;48284;46.828;29.480;2022-09-28T06:06:43;21.15;;;16.63;;
62289;SDS011;48284;46.828;29.480;2022-09-28T06:09:12;24.33;;;14.70;;
62289;SDS011;48284;46.828;29.480;2022-09-28T06:12:04;23.83;;;15.95;;
62289;SDS011;48284;46.828;29.480;2022-09-28T06:14:41;19.00;;;15.30;;
62289;SDS011;48284;46.828;29.480;2022-09-28T06:17:10;18.80;;;14.52;;
62289;SDS011;48284;46.828;29.480;2022-09-28T06:19:39;23.80;;;14.80;;
62289;SDS011;48284;46.828;29.480;2022-09-28T06:22:26;19.75;;;15.75;;
62289;SDS011;48284;46.828;29.480;2022-09-28T06:25:07;18.73;;;14.23;;
62289;SDS011;48284;46.828;29.480;2022-09-28T06:27:38;21.65;;;14.93;;
62289;SDS011;48284;46.828;29.480;2022-09-28T06:30:09;15.60;;;13.40;;
62289;SDS011;48284;46.828;29.480;2022-09-28T06:32:39;20.42;;;15.40;;
62289;SDS011;48284;46.828;29.480;2022-09-28T06:35:08;18.25;;;14.18;;
62289;SDS011;48284;46.828;29.480;2022-09-28T06:37:38;18.63;;;14.13;;
62289;SDS011;48284;46.828;29.480;2022-09-28T06:40:07;17.33;;;13.50;;
62289;SDS011;48284;46.828;29.480;2022-09-28T06:42:37;18.35;;;14.23;;
62289;SDS011;48284;46.828;29.480;2022-09-28T06:45:41;17.48;;;13.20;;
62289;SDS011;48284;46.828;29.480;2022-09-28T06:48:24;17.48;;;12.98;;
62289;SDS011;48284;46.828;29.480;2022-09-28T06:50:52;13.77;;;11.88;;
62289;SDS011;48284;46.828;29.480;2022-09-28T06:53:27;16.38;;;11.75;;
62289;SDS011;48284;46.828;29.480;2022-09-28T06:56:20;15.30;;;11.95;;
62289;SDS011;48284;46.828;29.480;2022-09-28T06:58:48;14.23;;;11.25;;
62289;SDS011;48284;46.828;29.480;2022-09-28T07:01:17;14.73;;;11.48;;
62289;SDS011;48284;46.828;29.480;2022-09-28T07:04:21;12.98;;;10.88;;
62289;SDS011;48284;46.828;29.480;2022-09-28T07:07:09;16.23;;;11.18;;
62289;SDS011;48284;46.828;29.480;2022-09-28T07:09:45;13.27;;;10.20;;
62289;SDS011;48284;46.828;29.480;2022-09-28T07:12:29;16.48;;;10.27;;
62289;SDS011;48284;46.828;29.480;2022-09-28T07:15:20;12.30;;;10.43;;
62289;SDS011;48284;46.828;29.480;2022-09-28T07:20:28;13.57;;;10.45;;
62289;SDS011;48284;46.828;29.480;2022-09-28T07:22:58;13.80;;;10.38;;
62289;SDS011;48284;46.828;29.480;2022-09-28T07:26:24;11.65;;;8.73;;
62289;SDS011;48284;46.828;29.480;2022-09-28T07:29:12;12.85;;;8.70;;
62289;SDS011;48284;46.828;29.480;2022-09-28T07:31:58;12.45;;;8.95;;
62289;SDS011;48284;46.828;29.480;2022-09-28T07:34:44;11.65;;;8.80;;
62289;SDS011;48284;46.828;29.480;2022-09-28T07:37:28;11.07;;;8.30;;
62289;SDS011;48284;46.828;29.480;2022-09-28T07:39:58;10.77;;;8.88;;
62289;SDS011;48284;46.828;29.480;2022-09-28T07:42:45;22.90;;;12.60;;
62289;SDS011;48284;46.828;29.480;2022-09-28T07:45:14;30.15;;;14.73;;
62289;SDS011;48284;46.828;29.480;2022-09-28T07:50:31;43.17;;;18.42;;
62289;SDS011;48284;46.828;29.480;2022-09-28T07:53:08;39.17;;;18.77;;
62289;SDS011;48284;46.828;29.480;2022-09-28T07:55:50;60.92;;;22.90;;
62289;SDS011;48284;46.828;29.480;2022-09-28T07:58:34;64.57;;;26.13;;
62289;SDS011;48284;46.828;29.480;2022-09-28T08:01:22;71.20;;;28.65;;
62289;SDS011;48284;46.828;29.480;2022-09-28T08:03:52;52.72;;;25.63;;
62289;SDS011;48284;46.828;29.480;2022-09-28T08:06:25;60.55;;;24.33;;
62289;SDS011;48284;46.828;29.480;2022-09-28T08:08:57;66.25;;;24.67;;
62289;SDS011;48284;46.828;29.480;2022-09-28T08:14:33;54.92;;;22.42;;
62289;SDS011;48284;46.828;29.480;2022-09-28T08:17:22;48.97;;;22.95;;
62289;SDS011;48284;46.828;29.480;2022-09-28T08:19:54;52.20;;;23.70;;
62289;SDS011;48284;46.828;29.480;2022-09-28T08:22:41;56.65;;;24.17;;
62289;SDS011;48284;46.828;29.480;2022-09-28T08:25:10;47.58;;;22.10;;
62289;SDS011;48284;46.828;29.480;2022-09-28T08:27:39;51.20;;;24.00;;
62289;SDS011;48284;46.828;29.480;2022-09-28T08:30:10;50.13;;;23.95;;
62289;SDS011;48284;46.828;29.480;2022-09-28T08:33:03;48.47;;;21.90;;
62289;SDS011;48284;46.828;29.480;2022-09-28T08:35:36;44.28;;;22.13;;
62289;SDS011;48284;46.828;29.480;2022-09-28T08:38:24;48.55;;;22.38;;
62289;SDS011;48284;46.828;29.480;2022-09-28T08:41:08;52.42;;;23.23;;
62289;SDS011;48284;46.828;29.480;2022-09-28T08:44:10;40.95;;;22.40;;
62289;SDS011;48284;46.828;29.480;2022-09-28T08:47:04;41.88;;;21.52;;
62289;SDS011;48284;46.828;29.480;2022-09-28T08:50:00;41.72;;;22.00;;
62289;SDS011;48284;46.828;29.480;2022-09-28T08:52:50;39.90;;;20.75;;
62289;SDS011;48284;46.828;29.480;2022-09-28T08:55:35;38.90;;;21.58;;
62289;SDS011;48284;46.828;29.480;2022-09-28T08:58:08;39.65;;;21.27;;
62289;SDS011;48284;46.828;29.480;2022-09-28T09:00:41;34.42;;;20.65;;
62289;SDS011;48284;46.828;29.480;2022-09-28T09:03:18;36.28;;;20.35;;
62289;SDS011;48284;46.828;29.480;2022-09-28T09:06:12;36.30;;;19.05;;
62289;SDS011;48284;46.828;29.480;2022-09-28T09:08:58;32.10;;;17.23;;
62289;SDS011;48284;46.828;29.480;2022-09-28T09:11:40;33.67;;;17.73;;
62289;SDS011;48284;46.828;29.480;2022-09-28T09:17:13;34.92;;;19.33;;
62289;SDS011;48284;46.828;29.480;2022-09-28T09:20:06;26.85;;;16.70;;
62289;SDS011;48284;46.828;29.480;2022-09-28T09:23:11;24.60;;;16.35;;
62289;SDS011;48284;46.828;29.480;2022-09-28T09:25:47;26.23;;;15.63;;
62289;SDS011;48284;46.828;29.480;2022-09-28T09:28:28;28.05;;;15.02;;
62289;SDS011;48284;46.828;29.480;2022-09-28T09:31:14;28.80;;;15.70;;
62289;SDS011;48284;46.828;29.480;2022-09-28T09:34:05;30.20;;;15.65;;
62289;SDS011;48284;46.828;29.480;2022-09-28T09:37:25;30.55;;;16.90;;
62289;SDS011;48284;46.828;29.480;2022-09-28T09:40:54;27.63;;;15.98;;
62289;SDS011;48284;46.828;29.480;2022-09-28T09:44:02;25.90;;;15.13;;
62289;SDS011;48284;46.828;29.480;2022-09-28T09:46:50;25.30;;;13.77;;
62289;SDS011;48284;46.828;29.480;2022-09-28T09:49:32;23.55;;;14.40;;
62289;SDS011;48284;46.828;29.480;2022-09-28T09:52:06;22.35;;;13.80;;
62289;SDS011;48284;46.828;29.480;2022-09-28T09:54:43;22.17;;;13.85;;
62289;SDS011;48284;46.828;29.480;2022-09-28T09:57:39;19.50;;;13.63;;
62289;SDS011;48284;46.828;29.480;2022-09-28T10:00:28;25.98;;;12.65;;
62289;SDS011;48284;46.828;29.480;2022-09-28T10:03:12;21.58;;;12.82;;
62289;SDS011;48284;46.828;29.480;2022-09-28T10:08:22;21.85;;;12.75;;
62289;SDS011;48284;46.828;29.480;2022-09-28T10:10:55;24.27;;;12.93;;
62289;SDS011;48284;46.828;29.480;2022-09-28T10:13:37;19.65;;;10.80;;
62289;SDS011;48284;46.828;29.480;2022-09-28T10:16:26;17.75;;;11.80;;
62289;SDS011;48284;46.828;29.480;2022-09-28T10:18:58;21.83;;;11.45;;
62289;SDS011;48284;46.828;29.480;2022-09-28T10:21:46;24.23;;;11.55;;
62289;SDS011;48284;46.828;29.480;2022-09-28T10:24:27;20.65;;;10.90;;
62289;SDS011;48284;46.828;29.480;2022-09-28T10:27:02;19.33;;;11.18;;
62289;SDS011;48284;46.828;29.480;2022-09-28T10:29:38;17.05;;;10.70;;
62289;SDS011;48284;46.828;29.480;2022-09-28T10:32:17;19.92;;;12.60;;
62289;SDS011;48284;46.828;29.480;2022-09-28T10:34:50;19.83;;;10.43;;
62289;SDS011;48284;46.828;29.480;2022-09-28T10:37:27;21.58;;;10.70;;
62289;SDS011;48284;46.828;29.480;2022-09-28T10:42:59;17.15;;;10.27;;
62289;SDS011;48284;46.828;29.480;2022-09-28T10:45:32;15.10;;;10.07;;
62289;SDS011;48284;46.828;29.480;2022-09-28T10:48:03;16.70;;;9.68;;
62289;SDS011;48284;46.828;29.480;2022-09-28T10:50:40;19.95;;;9.10;;
62289;SDS011;48284;46.828;29.480;2022-09-28T10:53:16;19.90;;;10.10;;
62289;SDS011;48284;46.828;29.480;2022-09-28T10:56:17;21.15;;;9.93;;
62289;SDS011;48284;46.828;29.480;2022-09-28T10:58:58;20.08;;;10.73;;
62289;SDS011;48284;46.828;29.480;2022-09-28T11:01:42;21.95;;;9.80;;
62289;SDS011;48284;46.828;29.480;2022-09-28T11:04:17;20.38;;;9.75;;
62289;SDS011;48284;46.828;29.480;2022-09-28T11:06:48;18.02;;;9.77;;
62289;SDS011;48284;46.828;29.480;2022-09-28T11:09:21;15.43;;;8.82;;
62289;SDS011;48284;46.828;29.480;2022-09-28T11:12:02;15.43;;;9.02;;
62289;SDS011;48284;46.828;29.480;2022-09-28T11:14:37;13.55;;;8.75;;
62289;SDS011;48284;46.828;29.480;2022-09-28T11:17:22;15.60;;;9.07;;
62289;SDS011;48284;46.828;29.480;2022-09-28T11:19:54;14.98;;;9.13;;
62289;SDS011;48284;46.828;29.480;2022-09-28T11:22:25;14.98;;;9.35;;
62289;SDS011;48284;46.828;29.480;2022-09-28T11:25:18;20.75;;;9.27;;
62289;SDS011;48284;46.828;29.480;2022-09-28T11:27:57;16.73;;;8.90;;
62289;SDS011;48284;46.828;29.480;2022-09-28T11:30:33;17.35;;;8.63;;
62289;SDS011;48284;46.828;29.480;2022-09-28T11:33:28;14.40;;;8.68;;
62289;SDS011;48284;46.828;29.480;2022-09-28T11:36:38;15.23;;;8.80;;
62289;SDS011;48284;46.828;29.480;2022-09-28T11:39:30;14.80;;;7.80;;
62289;SDS011;48284;46.828;29.480;2022-09-28T11:42:10;12.68;;;8.07;;
62289;SDS011;48284;46.828;29.480;2022-09-28T11:44:49;13.27;;;7.95;;
62289;SDS011;48284;46.828;29.480;2022-09-28T11:47:30;14.80;;;7.97;;
62289;SDS011;48284;46.828;29.480;2022-09-28T11:50:13;14.57;;;7.80;;
62289;SDS011;48284;46.828;29.480;2022-09-28T11:52:53;12.90;;;7.85;;
62289;SDS011;48284;46.828;29.480;2022-09-28T11:55:41;13.52;;;7.03;;
62289;SDS011;48284;46.828;29.480;2022-09-28T11:58:16;12.82;;;7.38;;
62289;SDS011;48284;46.828;29.480;2022-09-28T12:00:53;13.27;;;7.25;;
62289;SDS011;48284;46.828;29.480;2022-09-28T12:03:45;13.43;;;7.68;;
62289;SDS011;48284;46.828;29.480;2022-09-28T12:06:21;11.70;;;7.20;;
62289;SDS011;48284;46.828;29.480;2022-09-28T12:08:58;12.82;;;7.40;;
62289;SDS011;48284;46.828;29.480;2022-09-28T12:14:20;12.05;;;7.13;;
62289;SDS011;48284;46.828;29.480;2022-09-28T12:16:54;13.85;;;7.28;;
62289;SDS011;48284;46.828;29.480;2022-09-28T12:19:35;10.02;;;6.80;;
62289;SDS011;48284;46.828;29.480;2022-09-28T12:22:10;12.88;;;6.90;;
62289;SDS011;48284;46.828;29.480;2022-09-28T12:24:44;10.43;;;7.07;;
62289;SDS011;48284;46.828;29.480;2022-09-28T12:27:16;9.15;;;6.60;;
62289;SDS011;48284;46.828;29.480;2022-09-28T12:29:51;14.32;;;6.65;;
62289;SDS011;48284;46.828;29.480;2022-09-28T12:32:26;9.07;;;6.97;;
62289;SDS011;48284;46.828;29.480;2022-09-28T12:34:59;13.98;;;7.30;;
62289;SDS011;48284;46.828;29.480;2022-09-28T12:37:32;10.18;;;6.63;;
62289;SDS011;48284;46.828;29.480;2022-09-28T12:40:23;9.15;;;6.40;;
62289;SDS011;48284;46.828;29.480;2022-09-28T12:43:05;13.25;;;6.68;;
62289;SDS011;48284;46.828;29.480;2022-09-28T12:45:53;9.95;;;6.43;;
62289;SDS011;48284;46.828;29.480;2022-09-28T12:48:42;8.82;;;6.38;;
62289;SDS011;48284;46.828;29.480;2022-09-28T12:51:56;13.75;;;6.68;;
62289;SDS011;48284;46.828;29.480;2022-09-28T12:54:31;12.40;;;6.55;;
62289;SDS011;48284;46.828;29.480;2022-09-28T12:57:29;14.18;;;6.20;;
62289;SDS011;48284;46.828;29.480;2022-09-28T13:00:06;12.63;;;6.13;;
62289;SDS011;48284;46.828;29.480;2022-09-28T13:05:43;11.20;;;6.22;;
62289;SDS011;48284;46.828;29.480;2022-09-28T13:08:25;11.07;;;7.28;;
62289;SDS011;48284;46.828;29.480;2022-09-28T13:13:37;10.95;;;6.50;;
62289;SDS011;48284;46.828;29.480;2022-09-28T13:16:16;10.35;;;7.38;;
62289;SDS011;48284;46.828;29.480;2022-09-28T13:18:52;12.20;;;6.50;;
62289;SDS011;48284;46.828;29.480;2022-09-28T13:21:30;12.77;;;6.82;;
62289;SDS011;48284;46.828;29.480;2022-09-28T13:24:09;9.27;;;6.30;;
62289;SDS011;48284;46.828;29.480;2022-09-28T13:27:00;10.20;;;6.30;;
62289;SDS011;48284;46.828;29.480;2022-09-28T13:29:33;12.35;;;6.72;;
62289;SDS011;48284;46.828;29.480;2022-09-28T13:32:02;11.10;;;6.30;;
62289;SDS011;48284;46.828;29.480;2022-09-28T13:34:32;9.82;;;7.03;;
62289;SDS011;48284;46.828;29.480;2022-09-28T13:37:06;10.70;;;7.00;;
62289;SDS011;48284;46.828;29.480;2022-09-28T13:39:49;14.07;;;6.78;;
62289;SDS011;48284;46.828;29.480;2022-09-28T13:45:30;10.75;;;6.75;;
62289;SDS011;48284;46.828;29.480;2022-09-28T13:48:11;11.25;;;7.10;;
62289;SDS011;48284;46.828;29.480;2022-09-28T13:50:56;9.55;;;6.25;;
62289;SDS011;48284;46.828;29.480;2022-09-28T13:53:45;10.88;;;6.63;;
62289;SDS011;48284;46.828;29.480;2022-09-28T13:56:41;10.40;;;6.50;;
62289;SDS011;48284;46.828;29.480;2022-09-28T13:59:17;9.77;;;6.45;;
62289;SDS011;48284;46.828;29.480;2022-09-28T14:01:53;12.48;;;6.38;;
62289;SDS011;48284;46.828;29.480;2022-09-28T14:04:52;9.95;;;6.22;;
62289;SDS011;48284;46.828;29.480;2022-09-28T14:07:23;12.23;;;6.55;;
62289;SDS011;48284;46.828;29.480;2022-09-28T14:10:12;11.60;;;6.63;;
62289;SDS011;48284;46.828;29.480;2022-09-28T14:12:48;7.88;;;5.80;;
62289;SDS011;48284;46.828;29.480;2022-09-28T14:18:12;10.35;;;6.50;;
62289;SDS011;48284;46.828;29.480;2022-09-28T14:20:52;8.63;;;5.93;;
62289;SDS011;48284;46.828;29.480;2022-09-28T14:26:54;10.07;;;6.40;;
62289;SDS011;48284;46.828;29.480;2022-09-28T14:29:35;11.07;;;6.47;;
62289;SDS011;48284;46.828;29.480;2022-09-28T14:32:19;12.98;;;6.57;;
62289;SDS011;48284;46.828;29.480;2022-09-28T14:34:56;11.40;;;5.90;;
62289;SDS011;48284;46.828;29.480;2022-09-28T14:37:30;8.48;;;6.00;;
62289;SDS011;48284;46.828;29.480;2022-09-28T14:40:18;10.43;;;7.00;;
62289;SDS011;48284;46.828;29.480;2022-09-28T14:43:20;9.80;;;6.28;;
62289;SDS011;48284;46.828;29.480;2022-09-28T14:48:56;8.68;;;6.40;;
62289;SDS011;48284;46.828;29.480;2022-09-28T14:51:44;8.40;;;5.90;;
62289;SDS011;48284;46.828;29.480;2022-09-28T14:54:32;9.77;;;6.40;;
62289;SDS011;48284;46.828;29.480;2022-09-28T14:57:06;14.68;;;6.40;;
62289;SDS011;48284;46.828;29.480;2022-09-28T14:59:43;10.95;;;6.32;;
62289;SDS011;48284;46.828;29.480;2022-09-28T15:05:11;7.80;;;5.70;;
62289;SDS011;48284;46.828;29.480;2022-09-28T15:07:44;13.15;;;6.68;;
62289;SDS011;48284;46.828;29.480;2022-09-28T15:10:23;8.68;;;5.95;;
62289;SDS011;48284;46.828;29.480;2022-09-28T15:12:57;10.27;;;6.20;;
62289;SDS011;48284;46.828;29.480;2022-09-28T15:15:29;9.85;;;5.60;;
62289;SDS011;48284;46.828;29.480;2022-09-28T15:20:53;12.68;;;6.07;;
62289;SDS011;48284;46.828;29.480;2022-09-28T15:25:53;9.90;;;6.38;;
62289;SDS011;48284;46.828;29.480;2022-09-28T15:28:22;8.43;;;5.97;;
62289;SDS011;48284;46.828;29.480;2022-09-28T15:30:57;10.02;;;6.30;;
62289;SDS011;48284;46.828;29.480;2022-09-28T15:33:29;9.75;;;5.75;;
62289;SDS011;48284;46.828;29.480;2022-09-28T15:36:25;10.05;;;6.50;;
62289;SDS011;48284;46.828;29.480;2022-09-28T15:38:58;11.25;;;6.18;;
62289;SDS011;48284;46.828;29.480;2022-09-28T15:41:29;9.80;;;5.18;;
62289;SDS011;48284;46.828;29.480;2022-09-28T15:44:03;7.47;;;5.60;;
62289;SDS011;48284;46.828;29.480;2022-09-28T15:47:07;7.43;;;5.90;;
62289;SDS011;48284;46.828;29.480;2022-09-28T15:49:43;8.93;;;6.15;;
62289;SDS011;48284;46.828;29.480;2022-09-28T15:52:25;9.20;;;6.22;;
62289;SDS011;48284;46.828;29.480;2022-09-28T15:54:59;13.98;;;6.13;;
62289;SDS011;48284;46.828;29.480;2022-09-28T15:57:34;10.85;;;6.45;;
62289;SDS011;48284;46.828;29.480;2022-09-28T16:00:06;10.50;;;5.85;;
62289;SDS011;48284;46.828;29.480;2022-09-28T16:03:01;13.30;;;6.22;;
62289;SDS011;48284;46.828;29.480;2022-09-28T16:05:38;11.82;;;6.07;;
62289;SDS011;48284;46.828;29.480;2022-09-28T16:08:12;9.82;;;6.18;;
62289;SDS011;48284;46.828;29.480;2022-09-28T16:10:50;11.23;;;6.55;;
62289;SDS011;48284;46.828;29.480;2022-09-28T16:13:42;9.23;;;5.68;;
62289;SDS011;48284;46.828;29.480;2022-09-28T16:16:15;12.90;;;6.22;;
62289;SDS011;48284;46.828;29.480;2022-09-28T16:18:45;10.80;;;6.50;;
62289;SDS011;48284;46.828;29.480;2022-09-28T16:21:23;10.80;;;6.43;;
62289;SDS011;48284;46.828;29.480;2022-09-28T16:23:57;11.13;;;6.88;;